sensor_id;sensor_type;location;lat;lon;timestamp;temperature;humidity
21805;DHT22;11064;47.102;15.452;2024-02-14T05:02:37;0.10;99.90
21805;DHT22;11064;47.102;15.452;2024-02-14T05:05:03;0.10;99.90
21805;DHT22;11064;47.102;15.452;2024-02-14T05:07:28;0.00;99.90
21805;DHT22;11064;47.102;15.452;2024-02-14T05:09:54;-0.10;99.90
21805;DHT22;11064;47.102;15.452;2024-02-14T05:12:21;0.00;99.90
21805;DHT22;11064;47.102;15.452;2024-02-14T05:14:47;0.00;99.90
21805;DHT22;11064;47.102;15.452;2024-02-14T05:17:14;-0.10;99.90
21805;DHT22;11064;47.102;15.452;2024-02-14T05:19:43;0.00;99.90
21805;DHT22;11064;47.102;15.452;2024-02-14T05:22:08;0.00;99.90
21805;DHT22;11064;47.102;15.452;2024-02-14T05:24:34;0.00;99.90
21805;DHT22;11064;47.102;15.452;2024-02-14T05:27:03;0.00;99.90
21805;DHT22;11064;47.102;15.452;2024-02-14T05:29:29;0.00;99.90
21805;DHT22;11064;47.102;15.452;2024-02-14T05:31:55;-0.10;99.90
21805;DHT22;11064;47.102;15.452;2024-02-14T05:34:21;-0.10;99.90
21805;DHT22;11064;47.102;15.452;2024-02-14T05:36:47;0.00;99.90
21805;DHT22;11064;47.102;15.452;2024-02-14T05:39:13;-0.10;99.90
21805;DHT22;11064;47.102;15.452;2024-02-14T05:41:39;-0.10;99.90
21805;DHT22;11064;47.102;15.452;2024-02-14T05:44:05;-0.20;99.90
21805;DHT22;11064;47.102;15.452;2024-02-14T05:46:30;-0.20;99.90
21805;DHT22;11064;47.102;15.452;2024-02-14T05:48:56;-0.20;99.90
21805;DHT22;11064;47.102;15.452;2024-02-14T05:51:23;-0.10;99.90
21805;DHT22;11064;47.102;15.452;2024-02-14T05:53:49;-0.20;99.90
21805;DHT22;11064;47.102;15.452;2024-02-14T05:56:14;-0.20;99.90
21805;DHT22;11064;47.102;15.452;2024-02-14T05:58:40;-0.20;99.90
21805;DHT22;11064;47.102;15.452;2024-02-14T06:01:05;-0.30;99.90
21805;DHT22;11064;47.102;15.452;2024-02-14T06:03:31;-0.30;99.90
21805;DHT22;11064;47.102;15.452;2024-02-14T06:05:57;-0.30;99.90
21805;DHT22;11064;47.102;15.452;2024-02-14T06:08:23;-0.30;99.90
21805;DHT22;11064;47.102;15.452;2024-02-14T06:10:52;-0.20;99.90
21805;DHT22;11064;47.102;15.452;2024-02-14T06:13:18;-0.20;99.90
21805;DHT22;11064;47.102;15.452;2024-02-14T06:15:44;-0.10;99.90
21805;DHT22;11064;47.102;15.452;2024-02-14T06:18:10;-0.10;99.90
21805;DHT22;11064;47.102;15.452;2024-02-14T06:20:36;-0.10;99.90
21805;DHT22;11064;47.102;15.452;2024-02-14T06:23:03;-0.20;99.90
21805;DHT22;11064;47.102;15.452;2024-02-14T06:25:29;-0.10;99.90
21805;DHT22;11064;47.102;15.452;2024-02-14T06:27:54;-0.10;99.90
21805;DHT22;11064;47.102;15.452;2024-02-14T06:30:20;-0.10;99.90
21805;DHT22;11064;47.102;15.452;2024-02-14T06:32:45;-0.10;99.90
21805;DHT22;11064;47.102;15.452;2024-02-14T06:35:11;0.00;99.90
21805;DHT22;11064;47.102;15.452;2024-02-14T06:37:37;0.00;99.90
21805;DHT22;11064;47.102;15.452;2024-02-14T06:40:02;0.00;99.90
21805;DHT22;11064;47.102;15.452;2024-02-14T06:42:28;0.10;99.90
21805;DHT22;11064;47.102;15.452;2024-02-14T06:44:54;0.20;99.90
21805;DHT22;11064;47.102;15.452;2024-02-14T06:47:19;0.20;99.90
21805;DHT22;11064;47.102;15.452;2024-02-14T06:49:45;0.30;99.90
21805;DHT22;11064;47.102;15.452;2024-02-14T06:52:10;0.30;99.90
21805;DHT22;11064;47.102;15.452;2024-02-14T06:54:36;0.40;99.90
21805;DHT22;11064;47.102;15.452;2024-02-14T06:57:01;0.50;99.90
21805;DHT22;11064;47.102;15.452;2024-02-14T06:59:28;0.50;99.90
21805;DHT22;11064;47.102;15.452;2024-02-14T07:01:53;0.50;99.90
21805;DHT22;11064;47.102;15.452;2024-02-14T07:04:21;0.60;99.90
21805;DHT22;11064;47.102;15.452;2024-02-14T07:06:51;0.60;99.90
21805;DHT22;11064;47.102;15.452;2024-02-14T07:09:17;0.70;99.90
21805;DHT22;11064;47.102;15.452;2024-02-14T07:11:43;0.80;99.90
21805;DHT22;11064;47.102;15.452;2024-02-14T07:14:08;0.80;99.90
21805;DHT22;11064;47.102;15.452;2024-02-14T07:16:34;1.00;99.90
21805;DHT22;11064;47.102;15.452;2024-02-14T07:18:59;1.10;99.90
21805;DHT22;11064;47.102;15.452;2024-02-14T07:21:25;1.20;99.90
21805;DHT22;11064;47.102;15.452;2024-02-14T07:23:50;1.40;99.90
21805;DHT22;11064;47.102;15.452;2024-02-14T07:26:16;1.50;99.90
21805;DHT22;11064;47.102;15.452;2024-02-14T07:28:41;1.60;99.90
21805;DHT22;11064;47.102;15.452;2024-02-14T07:31:07;1.80;99.90
21805;DHT22;11064;47.102;15.452;2024-02-14T07:33:33;1.90;99.90
21805;DHT22;11064;47.102;15.452;2024-02-14T07:35:58;2.00;99.90
21805;DHT22;11064;47.102;15.452;2024-02-14T07:38:24;2.10;99.90
21805;DHT22;11064;47.102;15.452;2024-02-14T07:40:49;2.30;99.90
21805;DHT22;11064;47.102;15.452;2024-02-14T07:43:15;2.40;99.90
21805;DHT22;11064;47.102;15.452;2024-02-14T07:45:41;2.50;99.90
21805;DHT22;11064;47.102;15.452;2024-02-14T07:48:06;2.60;99.90
21805;DHT22;11064;47.102;15.452;2024-02-14T07:50:33;2.70;99.90
21805;DHT22;11064;47.102;15.452;2024-02-14T07:52:58;2.80;99.90
21805;DHT22;11064;47.102;15.452;2024-02-14T07:55:24;2.90;99.90
21805;DHT22;11064;47.102;15.452;2024-02-14T07:57:50;3.00;99.90
21805;DHT22;11064;47.102;15.452;2024-02-14T08:00:15;3.20;99.90
21805;DHT22;11064;47.102;15.452;2024-02-14T08:02:48;3.30;99.90
21805;DHT22;11064;47.102;15.452;2024-02-14T08:05:13;3.40;99.90
21805;DHT22;11064;47.102;15.452;2024-02-14T08:07:39;3.60;99.90
21805;DHT22;11064;47.102;15.452;2024-02-14T08:10:05;3.70;99.90
21805;DHT22;11064;47.102;15.452;2024-02-14T08:12:30;3.80;99.90
21805;DHT22;11064;47.102;15.452;2024-02-14T08:14:56;3.90;99.90
21805;DHT22;11064;47.102;15.452;2024-02-14T08:17:22;3.90;99.90
21805;DHT22;11064;47.102;15.452;2024-02-14T08:19:47;3.90;99.90
21805;DHT22;11064;47.102;15.452;2024-02-14T08:22:13;4.00;99.90
21805;DHT22;11064;47.102;15.452;2024-02-14T08:24:39;4.00;99.90
21805;DHT22;11064;47.102;15.452;2024-02-14T08:27:04;4.00;99.90
21805;DHT22;11064;47.102;15.452;2024-02-14T08:29:33;4.10;99.90
21805;DHT22;11064;47.102;15.452;2024-02-14T08:31:58;4.20;99.90
21805;DHT22;11064;47.102;15.452;2024-02-14T08:34:24;4.20;99.90
21805;DHT22;11064;47.102;15.452;2024-02-14T08:36:50;4.30;99.90
21805;DHT22;11064;47.102;15.452;2024-02-14T08:39:15;4.40;99.90
21805;DHT22;11064;47.102;15.452;2024-02-14T08:41:43;4.50;99.90
21805;DHT22;11064;47.102;15.452;2024-02-14T08:44:10;4.70;99.90
21805;DHT22;11064;47.102;15.452;2024-02-14T08:46:35;4.70;99.90
21805;DHT22;11064;47.102;15.452;2024-02-14T08:49:01;4.80;99.90
21805;DHT22;11064;47.102;15.452;2024-02-14T08:51:35;4.90;99.90
21805;DHT22;11064;47.102;15.452;2024-02-14T08:54:00;4.90;99.90
21805;DHT22;11064;47.102;15.452;2024-02-14T08:56:33;4.90;99.90
21805;DHT22;11064;47.102;15.452;2024-02-14T08:59:02;5.00;99.90
21805;DHT22;11064;47.102;15.452;2024-02-14T09:01:28;5.10;99.90
21805;DHT22;11064;47.102;15.452;2024-02-14T09:03:54;5.20;99.90
21805;DHT22;11064;47.102;15.452;2024-02-14T09:06:20;5.20;99.90
21805;DHT22;11064;47.102;15.452;2024-02-14T09:08:47;5.30;99.90
21805;DHT22;11064;47.102;15.452;2024-02-14T09:11:13;5.50;99.90
21805;DHT22;11064;47.102;15.452;2024-02-14T09:13:38;5.60;99.90
21805;DHT22;11064;47.102;15.452;2024-02-14T09:16:07;5.80;99.90
21805;DHT22;11064;47.102;15.452;2024-02-14T09:18:33;6.00;99.90
21805;DHT22;11064;47.102;15.452;2024-02-14T09:20:58;6.20;99.90
21805;DHT22;11064;47.102;15.452;2024-02-14T09:23:24;6.50;99.90
21805;DHT22;11064;47.102;15.452;2024-02-14T09:25:50;6.70;99.90
21805;DHT22;11064;47.102;15.452;2024-02-14T09:28:16;6.70;99.90
21805;DHT22;11064;47.102;15.452;2024-02-14T09:30:42;6.80;98.60
21805;DHT22;11064;47.102;15.452;2024-02-14T09:33:07;6.90;98.90
21805;DHT22;11064;47.102;15.452;2024-02-14T09:35:34;6.90;98.80
21805;DHT22;11064;47.102;15.452;2024-02-14T09:38:01;7.00;98.60
21805;DHT22;11064;47.102;15.452;2024-02-14T09:40:26;7.00;98.20
21805;DHT22;11064;47.102;15.452;2024-02-14T09:42:55;7.00;97.90
21805;DHT22;11064;47.102;15.452;2024-02-14T09:45:26;7.10;97.20
21805;DHT22;11064;47.102;15.452;2024-02-14T09:47:54;7.10;97.80
21805;DHT22;11064;47.102;15.452;2024-02-14T09:50:20;7.20;94.50
21805;DHT22;11064;47.102;15.452;2024-02-14T09:52:47;7.30;94.40
21805;DHT22;11064;47.102;15.452;2024-02-14T09:55:14;7.40;91.30
21805;DHT22;11064;47.102;15.452;2024-02-14T09:57:40;7.50;90.80
21805;DHT22;11064;47.102;15.452;2024-02-14T10:00:07;7.60;91.40
21805;DHT22;11064;47.102;15.452;2024-02-14T10:02:35;7.70;91.20
21805;DHT22;11064;47.102;15.452;2024-02-14T10:05:00;7.80;90.20
21805;DHT22;11064;47.102;15.452;2024-02-14T10:07:27;7.70;82.40
21805;DHT22;11064;47.102;15.452;2024-02-14T10:09:53;7.90;81.10
21805;DHT22;11064;47.102;15.452;2024-02-14T10:12:22;7.90;80.10
21805;DHT22;11064;47.102;15.452;2024-02-14T10:14:48;8.00;77.60
21805;DHT22;11064;47.102;15.452;2024-02-14T10:17:17;8.00;77.50
21805;DHT22;11064;47.102;15.452;2024-02-14T10:19:54;8.10;77.50
21805;DHT22;11064;47.102;15.452;2024-02-14T10:22:19;8.20;78.00
21805;DHT22;11064;47.102;15.452;2024-02-14T10:24:45;8.30;76.70
21805;DHT22;11064;47.102;15.452;2024-02-14T10:27:11;8.30;76.30
21805;DHT22;11064;47.102;15.452;2024-02-14T10:29:37;8.30;78.30
21805;DHT22;11064;47.102;15.452;2024-02-14T10:32:02;8.30;79.50
21805;DHT22;11064;47.102;15.452;2024-02-14T10:34:29;8.40;79.60
21805;DHT22;11064;47.102;15.452;2024-02-14T10:36:56;8.50;77.40
21805;DHT22;11064;47.102;15.452;2024-02-14T10:39:22;8.60;77.40
21805;DHT22;11064;47.102;15.452;2024-02-14T10:41:48;8.70;79.00
21805;DHT22;11064;47.102;15.452;2024-02-14T10:44:15;8.70;78.90
21805;DHT22;11064;47.102;15.452;2024-02-14T10:46:41;8.80;78.80
21805;DHT22;11064;47.102;15.452;2024-02-14T10:49:08;8.80;78.80
21805;DHT22;11064;47.102;15.452;2024-02-14T10:51:36;8.80;80.20
21805;DHT22;11064;47.102;15.452;2024-02-14T10:54:04;8.80;80.40
21805;DHT22;11064;47.102;15.452;2024-02-14T10:56:31;8.80;80.70
21805;DHT22;11064;47.102;15.452;2024-02-14T10:58:57;8.80;80.30
21805;DHT22;11064;47.102;15.452;2024-02-14T11:01:26;8.90;79.30
21805;DHT22;11064;47.102;15.452;2024-02-14T11:03:53;9.00;79.50
21805;DHT22;11064;47.102;15.452;2024-02-14T11:06:21;9.00;77.80
21805;DHT22;11064;47.102;15.452;2024-02-14T11:09:20;9.00;77.80
21805;DHT22;11064;47.102;15.452;2024-02-14T11:11:46;9.00;75.70
21805;DHT22;11064;47.102;15.452;2024-02-14T11:14:15;9.10;76.70
21805;DHT22;11064;47.102;15.452;2024-02-14T11:16:41;9.10;76.50
21805;DHT22;11064;47.102;15.452;2024-02-14T11:19:10;9.10;78.00
21805;DHT22;11064;47.102;15.452;2024-02-14T11:21:37;9.10;74.20
21805;DHT22;11064;47.102;15.452;2024-02-14T11:24:05;9.10;73.90
21805;DHT22;11064;47.102;15.452;2024-02-14T11:27:09;9.20;73.40
21805;DHT22;11064;47.102;15.452;2024-02-14T11:29:30;9.30;73.00
21805;DHT22;11064;47.102;15.452;2024-02-14T11:31:59;9.30;71.80
21805;DHT22;11064;47.102;15.452;2024-02-14T11:34:25;9.30;72.60
21805;DHT22;11064;47.102;15.452;2024-02-14T11:36:51;9.30;74.00
21805;DHT22;11064;47.102;15.452;2024-02-14T11:39:17;9.30;71.20
21805;DHT22;11064;47.102;15.452;2024-02-14T11:41:42;9.40;70.70
21805;DHT22;11064;47.102;15.452;2024-02-14T11:44:08;9.30;70.80
21805;DHT22;11064;47.102;15.452;2024-02-14T11:46:34;9.30;70.30
21805;DHT22;11064;47.102;15.452;2024-02-14T11:49:01;9.30;71.10
21805;DHT22;11064;47.102;15.452;2024-02-14T11:51:30;9.30;70.80
21805;DHT22;11064;47.102;15.452;2024-02-14T11:53:59;9.40;71.50
21805;DHT22;11064;47.102;15.452;2024-02-14T11:56:32;9.50;68.90
21805;DHT22;11064;47.102;15.452;2024-02-14T11:58:59;9.50;68.80
21805;DHT22;11064;47.102;15.452;2024-02-14T12:01:31;9.40;66.40
21805;DHT22;11064;47.102;15.452;2024-02-14T12:04:00;9.50;65.50
21805;DHT22;11064;47.102;15.452;2024-02-14T12:06:30;9.50;65.40
21805;DHT22;11064;47.102;15.452;2024-02-14T12:09:05;9.40;68.80
21805;DHT22;11064;47.102;15.452;2024-02-14T12:11:31;9.40;68.50
21805;DHT22;11064;47.102;15.452;2024-02-14T12:14:01;9.50;67.30
21805;DHT22;11064;47.102;15.452;2024-02-14T12:16:28;9.40;68.70
21805;DHT22;11064;47.102;15.452;2024-02-14T12:19:04;9.40;69.50
21805;DHT22;11064;47.102;15.452;2024-02-14T12:21:35;9.40;68.60
21805;DHT22;11064;47.102;15.452;2024-02-14T12:24:01;9.50;69.40
21805;DHT22;11064;47.102;15.452;2024-02-14T12:26:29;9.50;69.10
21805;DHT22;11064;47.102;15.452;2024-02-14T12:28:56;9.50;69.90
21805;DHT22;11064;47.102;15.452;2024-02-14T12:31:22;9.40;67.70
21805;DHT22;11064;47.102;15.452;2024-02-14T12:33:48;9.50;68.80
21805;DHT22;11064;47.102;15.452;2024-02-14T12:36:14;9.50;70.10
21805;DHT22;11064;47.102;15.452;2024-02-14T12:38:40;9.50;68.00
21805;DHT22;11064;47.102;15.452;2024-02-14T12:41:06;9.50;66.30
21805;DHT22;11064;47.102;15.452;2024-02-14T12:43:31;9.50;65.60
21805;DHT22;11064;47.102;15.452;2024-02-14T12:45:57;9.40;65.10
21805;DHT22;11064;47.102;15.452;2024-02-14T12:48:24;9.30;65.50
21805;DHT22;11064;47.102;15.452;2024-02-14T12:50:53;9.30;68.10
21805;DHT22;11064;47.102;15.452;2024-02-14T12:53:20;9.30;67.60
21805;DHT22;11064;47.102;15.452;2024-02-14T12:55:46;9.40;68.70
21805;DHT22;11064;47.102;15.452;2024-02-14T12:58:12;9.40;70.00
21805;DHT22;11064;47.102;15.452;2024-02-14T13:00:38;9.30;70.60
21805;DHT22;11064;47.102;15.452;2024-02-14T13:03:03;9.30;69.50
21805;DHT22;11064;47.102;15.452;2024-02-14T13:05:30;9.20;69.10
21805;DHT22;11064;47.102;15.452;2024-02-14T13:07:56;9.20;68.70
21805;DHT22;11064;47.102;15.452;2024-02-14T13:10:21;9.20;68.20
21805;DHT22;11064;47.102;15.452;2024-02-14T13:12:48;9.20;66.40
21805;DHT22;11064;47.102;15.452;2024-02-14T13:15:13;9.10;67.50
21805;DHT22;11064;47.102;15.452;2024-02-14T13:17:39;9.10;68.30
21805;DHT22;11064;47.102;15.452;2024-02-14T13:20:05;9.10;66.30
21805;DHT22;11064;47.102;15.452;2024-02-14T13:22:31;9.00;64.40
21805;DHT22;11064;47.102;15.452;2024-02-14T13:24:58;9.00;64.80
21805;DHT22;11064;47.102;15.452;2024-02-14T13:27:26;9.00;66.00
21805;DHT22;11064;47.102;15.452;2024-02-14T13:29:51;9.00;67.60
21805;DHT22;11064;47.102;15.452;2024-02-14T13:32:17;9.00;66.10
21805;DHT22;11064;47.102;15.452;2024-02-14T13:34:42;8.90;64.00
21805;DHT22;11064;47.102;15.452;2024-02-14T13:37:09;9.00;64.50
21805;DHT22;11064;47.102;15.452;2024-02-14T13:39:35;8.90;64.20
21805;DHT22;11064;47.102;15.452;2024-02-14T13:42:00;8.90;65.80
21805;DHT22;11064;47.102;15.452;2024-02-14T13:44:27;8.90;67.70
21805;DHT22;11064;47.102;15.452;2024-02-14T13:46:53;8.90;67.80
21805;DHT22;11064;47.102;15.452;2024-02-14T13:49:19;8.90;65.30
21805;DHT22;11064;47.102;15.452;2024-02-14T13:51:48;8.90;64.70
21805;DHT22;11064;47.102;15.452;2024-02-14T13:54:15;8.90;65.40
21805;DHT22;11064;47.102;15.452;2024-02-14T13:56:41;8.80;64.40
21805;DHT22;11064;47.102;15.452;2024-02-14T13:59:06;8.80;64.90
21805;DHT22;11064;47.102;15.452;2024-02-14T14:01:32;8.80;66.10
21805;DHT22;11064;47.102;15.452;2024-02-14T14:03:58;8.80;67.40
21805;DHT22;11064;47.102;15.452;2024-02-14T14:06:23;8.80;66.00
21805;DHT22;11064;47.102;15.452;2024-02-14T14:08:52;8.80;66.50
21805;DHT22;11064;47.102;15.452;2024-02-14T14:11:17;8.70;65.60
21805;DHT22;11064;47.102;15.452;2024-02-14T14:13:43;8.50;67.50
21805;DHT22;11064;47.102;15.452;2024-02-14T14:16:08;8.50;69.40
21805;DHT22;11064;47.102;15.452;2024-02-14T14:18:36;8.50;69.20
21805;DHT22;11064;47.102;15.452;2024-02-14T14:21:02;8.50;69.00
21805;DHT22;11064;47.102;15.452;2024-02-14T14:23:29;8.50;68.90
21805;DHT22;11064;47.102;15.452;2024-02-14T14:25:54;8.70;69.00
21805;DHT22;11064;47.102;15.452;2024-02-14T14:28:20;8.80;68.00
21805;DHT22;11064;47.102;15.452;2024-02-14T14:30:56;8.90;66.60
21805;DHT22;11064;47.102;15.452;2024-02-14T14:33:21;9.00;65.80
21805;DHT22;11064;47.102;15.452;2024-02-14T14:35:47;9.00;65.40
21805;DHT22;11064;47.102;15.452;2024-02-14T14:38:18;9.10;65.60
21805;DHT22;11064;47.102;15.452;2024-02-14T14:40:43;9.00;65.30
21805;DHT22;11064;47.102;15.452;2024-02-14T14:43:14;9.00;65.80
21805;DHT22;11064;47.102;15.452;2024-02-14T14:45:40;8.90;66.00
21805;DHT22;11064;47.102;15.452;2024-02-14T14:48:07;8.90;65.90
21805;DHT22;11064;47.102;15.452;2024-02-14T14:50:37;8.90;66.80
21805;DHT22;11064;47.102;15.452;2024-02-14T14:53:03;8.70;66.30
21805;DHT22;11064;47.102;15.452;2024-02-14T14:55:40;8.70;65.60
21805;DHT22;11064;47.102;15.452;2024-02-14T14:58:14;8.60;66.10
21805;DHT22;11064;47.102;15.452;2024-02-14T15:00:39;8.60;65.90
21805;DHT22;11064;47.102;15.452;2024-02-14T15:03:05;8.50;66.10
21805;DHT22;11064;47.102;15.452;2024-02-14T15:05:31;8.50;66.70
21805;DHT22;11064;47.102;15.452;2024-02-14T15:07:57;8.50;66.90
21805;DHT22;11064;47.102;15.452;2024-02-14T15:10:23;8.50;66.50
21805;DHT22;11064;47.102;15.452;2024-02-14T15:12:49;8.40;65.80
21805;DHT22;11064;47.102;15.452;2024-02-14T15:15:14;8.30;65.90
21805;DHT22;11064;47.102;15.452;2024-02-14T15:17:40;8.30;65.80
21805;DHT22;11064;47.102;15.452;2024-02-14T15:20:06;8.20;67.50
21805;DHT22;11064;47.102;15.452;2024-02-14T15:22:31;8.10;67.40
21805;DHT22;11064;47.102;15.452;2024-02-14T15:24:57;8.10;68.60
21805;DHT22;11064;47.102;15.452;2024-02-14T15:27:23;8.10;69.50
21805;DHT22;11064;47.102;15.452;2024-02-14T15:29:49;8.10;70.50
21805;DHT22;11064;47.102;15.452;2024-02-14T15:32:33;8.10;69.60
21805;DHT22;11064;47.102;15.452;2024-02-14T15:35:18;8.10;69.00
21805;DHT22;11064;47.102;15.452;2024-02-14T15:37:44;8.10;69.00
21805;DHT22;11064;47.102;15.452;2024-02-14T15:40:17;8.10;69.00
21805;DHT22;11064;47.102;15.452;2024-02-14T15:42:43;8.10;68.70
21805;DHT22;11064;47.102;15.452;2024-02-14T15:45:09;8.10;69.00
21805;DHT22;11064;47.102;15.452;2024-02-14T15:47:41;8.00;69.50
21805;DHT22;11064;47.102;15.452;2024-02-14T15:50:07;7.90;70.20
21805;DHT22;11064;47.102;15.452;2024-02-14T15:52:33;7.80;70.80
21805;DHT22;11064;47.102;15.452;2024-02-14T15:54:59;7.60;71.40
21805;DHT22;11064;47.102;15.452;2024-02-14T15:57:25;7.60;71.80
21805;DHT22;11064;47.102;15.452;2024-02-14T15:59:51;7.50;71.10
21805;DHT22;11064;47.102;15.452;2024-02-14T16:02:16;7.40;72.10
21805;DHT22;11064;47.102;15.452;2024-02-14T16:04:42;7.40;72.50
21805;DHT22;11064;47.102;15.452;2024-02-14T16:07:08;7.50;72.30
21805;DHT22;11064;47.102;15.452;2024-02-14T16:09:33;7.50;73.40
21805;DHT22;11064;47.102;15.452;2024-02-14T16:11:59;7.40;73.70
21805;DHT22;11064;47.102;15.452;2024-02-14T16:14:24;7.40;74.30
21805;DHT22;11064;47.102;15.452;2024-02-14T16:16:52;7.30;75.00
21805;DHT22;11064;47.102;15.452;2024-02-14T16:19:18;7.20;75.70
21805;DHT22;11064;47.102;15.452;2024-02-14T16:21:44;7.20;75.00
21805;DHT22;11064;47.102;15.452;2024-02-14T16:24:09;7.30;74.80
21805;DHT22;11064;47.102;15.452;2024-02-14T16:26:35;7.40;74.20
21805;DHT22;11064;47.102;15.452;2024-02-14T16:29:01;7.40;74.00
21805;DHT22;11064;47.102;15.452;2024-02-14T16:31:26;7.40;74.20
21805;DHT22;11064;47.102;15.452;2024-02-14T16:33:52;7.40;74.00
21805;DHT22;11064;47.102;15.452;2024-02-14T16:36:17;7.40;74.00
21805;DHT22;11064;47.102;15.452;2024-02-14T16:38:43;7.40;73.90
21805;DHT22;11064;47.102;15.452;2024-02-14T16:41:09;7.40;73.60
21805;DHT22;11064;47.102;15.452;2024-02-14T16:43:35;7.50;73.60
21805;DHT22;11064;47.102;15.452;2024-02-14T16:46:01;7.50;73.00
21805;DHT22;11064;47.102;15.452;2024-02-14T16:48:27;7.50;73.00
21805;DHT22;11064;47.102;15.452;2024-02-14T16:50:52;7.60;72.20
21805;DHT22;11064;47.102;15.452;2024-02-14T16:53:18;7.70;70.50
21805;DHT22;11064;47.102;15.452;2024-02-14T16:55:43;7.70;69.70
21805;DHT22;11064;47.102;15.452;2024-02-14T16:58:09;7.70;70.00
21805;DHT22;11064;47.102;15.452;2024-02-14T17:00:35;7.80;70.60
21805;DHT22;11064;47.102;15.452;2024-02-14T17:03:00;7.70;71.10
21805;DHT22;11064;47.102;15.452;2024-02-14T17:05:26;7.70;71.40
21805;DHT22;11064;47.102;15.452;2024-02-14T17:07:52;7.50;71.30
21805;DHT22;11064;47.102;15.452;2024-02-14T17:10:17;7.50;71.40
21805;DHT22;11064;47.102;15.452;2024-02-14T17:12:44;7.50;71.30
21805;DHT22;11064;47.102;15.452;2024-02-14T17:15:09;7.50;71.20
21805;DHT22;11064;47.102;15.452;2024-02-14T17:17:35;7.30;71.60
21805;DHT22;11064;47.102;15.452;2024-02-14T17:20:01;7.30;71.60
21805;DHT22;11064;47.102;15.452;2024-02-14T17:22:27;7.40;72.00
21805;DHT22;11064;47.102;15.452;2024-02-14T17:24:52;7.50;72.20
21805;DHT22;11064;47.102;15.452;2024-02-14T17:27:21;7.50;72.20
21805;DHT22;11064;47.102;15.452;2024-02-14T17:29:47;7.50;72.90
21805;DHT22;11064;47.102;15.452;2024-02-14T17:32:13;7.50;73.10
21805;DHT22;11064;47.102;15.452;2024-02-14T17:34:38;7.40;73.20
21805;DHT22;11064;47.102;15.452;2024-02-14T17:37:06;7.30;72.80
21805;DHT22;11064;47.102;15.452;2024-02-14T17:39:31;7.30;72.70
21805;DHT22;11064;47.102;15.452;2024-02-14T17:42:00;7.30;72.80
21805;DHT22;11064;47.102;15.452;2024-02-14T17:44:25;7.30;72.80
21805;DHT22;11064;47.102;15.452;2024-02-14T17:46:51;7.50;71.20
21805;DHT22;11064;47.102;15.452;2024-02-14T17:49:17;7.40;70.70
21805;DHT22;11064;47.102;15.452;2024-02-14T17:51:44;7.40;70.30
21805;DHT22;11064;47.102;15.452;2024-02-14T17:54:15;7.40;70.20
21805;DHT22;11064;47.102;15.452;2024-02-14T17:56:42;7.50;70.50
21805;DHT22;11064;47.102;15.452;2024-02-14T17:59:08;7.50;70.50
21805;DHT22;11064;47.102;15.452;2024-02-14T18:01:34;7.50;71.00
21805;DHT22;11064;47.102;15.452;2024-02-14T18:03:59;7.40;71.10
21805;DHT22;11064;47.102;15.452;2024-02-14T18:06:25;7.30;72.00
21805;DHT22;11064;47.102;15.452;2024-02-14T18:08:51;7.30;72.80
21805;DHT22;11064;47.102;15.452;2024-02-14T18:11:16;7.20;73.50
21805;DHT22;11064;47.102;15.452;2024-02-14T18:13:42;7.20;74.30
21805;DHT22;11064;47.102;15.452;2024-02-14T18:16:08;7.10;74.60
21805;DHT22;11064;47.102;15.452;2024-02-14T18:18:34;7.00;75.20
21805;DHT22;11064;47.102;15.452;2024-02-14T18:21:06;7.00;75.20
21805;DHT22;11064;47.102;15.452;2024-02-14T18:23:32;7.10;75.60
21805;DHT22;11064;47.102;15.452;2024-02-14T18:25:58;7.10;75.40
21805;DHT22;11064;47.102;15.452;2024-02-14T18:28:24;6.90;76.10
21805;DHT22;11064;47.102;15.452;2024-02-14T18:30:49;6.60;76.60
21805;DHT22;11064;47.102;15.452;2024-02-14T18:33:15;6.50;77.90
21805;DHT22;11064;47.102;15.452;2024-02-14T18:35:41;6.40;79.00
21805;DHT22;11064;47.102;15.452;2024-02-14T18:38:06;6.10;79.70
21805;DHT22;11064;47.102;15.452;2024-02-14T18:40:38;5.90;80.80
21805;DHT22;11064;47.102;15.452;2024-02-14T18:43:05;5.80;81.80
21805;DHT22;11064;47.102;15.452;2024-02-14T18:45:31;5.70;82.60
21805;DHT22;11064;47.102;15.452;2024-02-14T18:47:57;5.80;82.60
21805;DHT22;11064;47.102;15.452;2024-02-14T18:50:23;5.80;81.30
21805;DHT22;11064;47.102;15.452;2024-02-14T18:52:50;5.80;81.50
21805;DHT22;11064;47.102;15.452;2024-02-14T18:55:18;5.80;81.50
21805;DHT22;11064;47.102;15.452;2024-02-14T18:57:44;5.80;81.70
21805;DHT22;11064;47.102;15.452;2024-02-14T19:00:09;5.80;81.50
21805;DHT22;11064;47.102;15.452;2024-02-14T19:02:36;5.80;81.30
21805;DHT22;11064;47.102;15.452;2024-02-14T19:05:03;5.80;81.90
21805;DHT22;11064;47.102;15.452;2024-02-14T19:07:29;5.70;81.80
21805;DHT22;11064;47.102;15.452;2024-02-14T19:09:55;5.80;81.30
21805;DHT22;11064;47.102;15.452;2024-02-14T19:12:20;5.80;81.20
21805;DHT22;11064;47.102;15.452;2024-02-14T19:14:46;5.80;81.40
21805;DHT22;11064;47.102;15.452;2024-02-14T19:17:15;5.80;81.70
21805;DHT22;11064;47.102;15.452;2024-02-14T19:19:40;5.80;82.00
21805;DHT22;11064;47.102;15.452;2024-02-14T19:22:06;5.90;82.20
21805;DHT22;11064;47.102;15.452;2024-02-14T19:24:32;5.90;82.30
21805;DHT22;11064;47.102;15.452;2024-02-14T19:26:58;5.90;82.30
21805;DHT22;11064;47.102;15.452;2024-02-14T19:29:23;5.80;82.70
21805;DHT22;11064;47.102;15.452;2024-02-14T19:31:50;5.80;83.30
21805;DHT22;11064;47.102;15.452;2024-02-14T19:34:16;5.70;84.00
21805;DHT22;11064;47.102;15.452;2024-02-14T19:36:41;5.70;84.30
21805;DHT22;11064;47.102;15.452;2024-02-14T19:39:07;5.70;84.10
21805;DHT22;11064;47.102;15.452;2024-02-14T19:41:34;5.70;83.80
21805;DHT22;11064;47.102;15.452;2024-02-14T19:44:01;5.70;83.70
21805;DHT22;11064;47.102;15.452;2024-02-14T19:46:27;5.60;82.90
21805;DHT22;11064;47.102;15.452;2024-02-14T19:48:53;5.60;83.40
21805;DHT22;11064;47.102;15.452;2024-02-14T19:51:20;5.50;83.60
21805;DHT22;11064;47.102;15.452;2024-02-14T19:53:47;5.40;84.20
21805;DHT22;11064;47.102;15.452;2024-02-14T19:56:13;5.30;84.30
21805;DHT22;11064;47.102;15.452;2024-02-14T19:58:39;5.30;84.90
21805;DHT22;11064;47.102;15.452;2024-02-14T20:01:05;5.20;85.00
21805;DHT22;11064;47.102;15.452;2024-02-14T20:03:35;5.10;85.80
21805;DHT22;11064;47.102;15.452;2024-02-14T20:06:03;5.10;86.00
21805;DHT22;11064;47.102;15.452;2024-02-14T20:08:30;5.20;86.40
21805;DHT22;11064;47.102;15.452;2024-02-14T20:10:56;5.10;85.90
21805;DHT22;11064;47.102;15.452;2024-02-14T20:13:23;5.20;85.30
21805;DHT22;11064;47.102;15.452;2024-02-14T20:15:48;5.20;85.30
21805;DHT22;11064;47.102;15.452;2024-02-14T20:18:14;5.20;85.30
21805;DHT22;11064;47.102;15.452;2024-02-14T20:20:40;5.30;85.10
21805;DHT22;11064;47.102;15.452;2024-02-14T20:23:06;5.30;85.10
21805;DHT22;11064;47.102;15.452;2024-02-14T20:25:31;5.30;85.90
21805;DHT22;11064;47.102;15.452;2024-02-14T20:27:57;5.20;85.90